sensor_id;sensor_type;location;lat;lon;timestamp;P1;durP1;ratioP1;P2;durP2;ratioP2
14001;SDS011;7076;51.280;12.584;2022-11-03T00:00:35;3.63;;;1.60;;
14001;SDS011;7076;51.280;12.584;2022-11-03T00:05:38;4.07;;;1.77;;
14001;SDS011;7076;51.280;12.584;2022-11-03T00:11:04;4.35;;;1.80;;
14001;SDS011;7076;51.280;12.584;2022-11-03T00:16:08;3.72;;;1.63;;
14001;SDS011;7076;51.280;12.584;2022-11-03T00:21:12;3.42;;;1.50;;
14001;SDS011;7076;51.280;12.584;2022-11-03T00:26:17;4.15;;;1.60;;
14001;SDS011;7076;51.280;12.584;2022-11-03T00:31:21;3.45;;;1.55;;
14001;SDS011;7076;51.280;12.584;2022-11-03T00:36:26;5.32;;;1.92;;
14001;SDS011;7076;51.280;12.584;2022-11-03T00:41:30;5.38;;;2.17;;
14001;SDS011;7076;51.280;12.584;2022-11-03T00:46:33;4.85;;;1.73;;
14001;SDS011;7076;51.280;12.584;2022-11-03T00:51:36;5.28;;;1.67;;
14001;SDS011;7076;51.280;12.584;2022-11-03T00:56:40;6.90;;;2.08;;
14001;SDS011;7076;51.280;12.584;2022-11-03T01:01:44;5.28;;;1.60;;
14001;SDS011;7076;51.280;12.584;2022-11-03T01:06:49;4.18;;;1.20;;
14001;SDS011;7076;51.280;12.584;2022-11-03T01:11:58;4.90;;;1.98;;
14001;SDS011;7076;51.280;12.584;2022-11-03T01:17:03;3.88;;;1.48;;
14001;SDS011;7076;51.280;12.584;2022-11-03T01:22:06;2.15;;;1.45;;
14001;SDS011;7076;51.280;12.584;2022-11-03T01:27:13;3.25;;;1.80;;
14001;SDS011;7076;51.280;12.584;2022-11-03T01:32:17;3.38;;;1.38;;
14001;SDS011;7076;51.280;12.584;2022-11-03T01:37:20;3.78;;;1.40;;
14001;SDS011;7076;51.280;12.584;2022-11-03T01:42:24;5.28;;;1.63;;
14001;SDS011;7076;51.280;12.584;2022-11-03T01:47:27;5.07;;;1.33;;
14001;SDS011;7076;51.280;12.584;2022-11-03T01:52:32;2.60;;;1.20;;
14001;SDS011;7076;51.280;12.584;2022-11-03T01:57:39;3.85;;;1.10;;
14001;SDS011;7076;51.280;12.584;2022-11-03T02:02:43;4.50;;;1.50;;
14001;SDS011;7076;51.280;12.584;2022-11-03T02:07:47;5.38;;;1.60;;
14001;SDS011;7076;51.280;12.584;2022-11-03T02:12:53;2.08;;;1.13;;
14001;SDS011;7076;51.280;12.584;2022-11-03T02:17:56;3.92;;;1.20;;
14001;SDS011;7076;51.280;12.584;2022-11-03T02:23:04;3.72;;;1.40;;
14001;SDS011;7076;51.280;12.584;2022-11-03T02:28:14;2.67;;;1.00;;
14001;SDS011;7076;51.280;12.584;2022-11-03T02:33:19;5.25;;;1.20;;
14001;SDS011;7076;51.280;12.584;2022-11-03T02:38:30;4.07;;;1.30;;
14001;SDS011;7076;51.280;12.584;2022-11-03T02:43:37;3.85;;;1.23;;
14001;SDS011;7076;51.280;12.584;2022-11-03T02:48:40;3.08;;;1.08;;
14001;SDS011;7076;51.280;12.584;2022-11-03T02:53:43;1.52;;;1.00;;
14001;SDS011;7076;51.280;12.584;2022-11-03T02:58:50;3.97;;;1.17;;
14001;SDS011;7076;51.280;12.584;2022-11-03T03:03:57;2.67;;;1.20;;
14001;SDS011;7076;51.280;12.584;2022-11-03T03:09:02;2.60;;;1.27;;
14001;SDS011;7076;51.280;12.584;2022-11-03T03:14:09;2.33;;;1.40;;
14001;SDS011;7076;51.280;12.584;2022-11-03T03:19:17;3.55;;;1.33;;
14001;SDS011;7076;51.280;12.584;2022-11-03T03:24:27;4.18;;;1.25;;
14001;SDS011;7076;51.280;12.584;2022-11-03T03:29:37;4.25;;;1.30;;
14001;SDS011;7076;51.280;12.584;2022-11-03T03:34:41;2.25;;;1.33;;
14001;SDS011;7076;51.280;12.584;2022-11-03T03:39:45;2.63;;;1.17;;
14001;SDS011;7076;51.280;12.584;2022-11-03T03:44:51;3.58;;;1.42;;
14001;SDS011;7076;51.280;12.584;2022-11-03T03:49:54;3.97;;;1.73;;
14001;SDS011;7076;51.280;12.584;2022-11-03T03:54:57;4.90;;;1.25;;
14001;SDS011;7076;51.280;12.584;2022-11-03T04:00:01;3.40;;;1.40;;
14001;SDS011;7076;51.280;12.584;2022-11-03T04:05:12;2.28;;;1.23;;
14001;SDS011;7076;51.280;12.584;2022-11-03T04:10:15;5.07;;;2.08;;
14001;SDS011;7076;51.280;12.584;2022-11-03T04:15:20;4.25;;;1.52;;
14001;SDS011;7076;51.280;12.584;2022-11-03T04:20:39;4.03;;;1.58;;
14001;SDS011;7076;51.280;12.584;2022-11-03T04:26:00;3.78;;;1.33;;
14001;SDS011;7076;51.280;12.584;2022-11-03T04:31:05;4.00;;;1.70;;
14001;SDS011;7076;51.280;12.584;2022-11-03T04:36:09;1.90;;;1.33;;
14001;SDS011;7076;51.280;12.584;2022-11-03T04:41:15;2.38;;;1.20;;
14001;SDS011;7076;51.280;12.584;2022-11-03T04:46:23;2.65;;;1.33;;
14001;SDS011;7076;51.280;12.584;2022-11-03T04:51:26;2.75;;;1.50;;
14001;SDS011;7076;51.280;12.584;2022-11-03T04:56:32;3.75;;;1.42;;
14001;SDS011;7076;51.280;12.584;2022-11-03T05:01:36;1.45;;;1.20;;
14001;SDS011;7076;51.280;12.584;2022-11-03T05:06:39;3.83;;;1.33;;
14001;SDS011;7076;51.280;12.584;2022-11-03T05:11:43;2.55;;;1.25;;
14001;SDS011;7076;51.280;12.584;2022-11-03T05:16:48;5.45;;;1.48;;
14001;SDS011;7076;51.280;12.584;2022-11-03T05:21:53;1.25;;;0.90;;
14001;SDS011;7076;51.280;12.584;2022-11-03T05:26:59;2.95;;;1.40;;
14001;SDS011;7076;51.280;12.584;2022-11-03T05:32:07;3.55;;;1.45;;
14001;SDS011;7076;51.280;12.584;2022-11-03T05:37:18;3.83;;;1.73;;
14001;SDS011;7076;51.280;12.584;2022-11-03T05:42:33;2.17;;;1.40;;
14001;SDS011;7076;51.280;12.584;2022-11-03T05:47:37;1.98;;;1.20;;
14001;SDS011;7076;51.280;12.584;2022-11-03T05:52:41;2.55;;;1.48;;
14001;SDS011;7076;51.280;12.584;2022-11-03T05:57:45;4.55;;;1.70;;
14001;SDS011;7076;51.280;12.584;2022-11-03T06:02:49;1.95;;;1.00;;
14001;SDS011;7076;51.280;12.584;2022-11-03T06:07:53;3.17;;;1.30;;
14001;SDS011;7076;51.280;12.584;2022-11-03T06:12:58;1.90;;;1.20;;
14001;SDS011;7076;51.280;12.584;2022-11-03T06:18:08;2.40;;;1.38;;
14001;SDS011;7076;51.280;12.584;2022-11-03T06:23:14;3.53;;;1.27;;
14001;SDS011;7076;51.280;12.584;2022-11-03T06:28:18;4.53;;;2.47;;
14001;SDS011;7076;51.280;12.584;2022-11-03T06:33:24;3.92;;;2.03;;
14001;SDS011;7076;51.280;12.584;2022-11-03T06:38:28;3.35;;;1.58;;
14001;SDS011;7076;51.280;12.584;2022-11-03T06:43:33;3.38;;;1.70;;
14001;SDS011;7076;51.280;12.584;2022-11-03T06:48:43;4.88;;;1.80;;
14001;SDS011;7076;51.280;12.584;2022-11-03T06:53:46;4.00;;;1.23;;
14001;SDS011;7076;51.280;12.584;2022-11-03T06:58:50;1.85;;;0.90;;
14001;SDS011;7076;51.280;12.584;2022-11-03T07:03:57;2.13;;;1.00;;
14001;SDS011;7076;51.280;12.584;2022-11-03T07:09:02;6.25;;;1.58;;
14001;SDS011;7076;51.280;12.584;2022-11-03T07:14:09;4.05;;;1.40;;
14001;SDS011;7076;51.280;12.584;2022-11-03T07:19:16;5.03;;;1.20;;
14001;SDS011;7076;51.280;12.584;2022-11-03T07:24:20;5.97;;;1.63;;
14001;SDS011;7076;51.280;12.584;2022-11-03T07:29:25;4.47;;;1.15;;
14001;SDS011;7076;51.280;12.584;2022-11-03T07:34:31;1.95;;;1.60;;
14001;SDS011;7076;51.280;12.584;2022-11-03T07:39:35;2.88;;;1.10;;
14001;SDS011;7076;51.280;12.584;2022-11-03T07:44:38;2.55;;;1.33;;
14001;SDS011;7076;51.280;12.584;2022-11-03T07:49:43;1.30;;;0.80;;
14001;SDS011;7076;51.280;12.584;2022-11-03T07:54:46;2.92;;;1.17;;
14001;SDS011;7076;51.280;12.584;2022-11-03T07:59:49;3.85;;;1.48;;
14001;SDS011;7076;51.280;12.584;2022-11-03T08:04:55;3.03;;;1.65;;
14001;SDS011;7076;51.280;12.584;2022-11-03T08:09:58;6.25;;;1.23;;
14001;SDS011;7076;51.280;12.584;2022-11-03T08:15:01;2.65;;;1.10;;
14001;SDS011;7076;51.280;12.584;2022-11-03T08:20:06;3.72;;;1.30;;
14001;SDS011;7076;51.280;12.584;2022-11-03T08:25:09;7.15;;;2.63;;
14001;SDS011;7076;51.280;12.584;2022-11-03T08:30:12;4.15;;;1.77;;
14001;SDS011;7076;51.280;12.584;2022-11-03T08:35:16;2.78;;;1.08;;
14001;SDS011;7076;51.280;12.584;2022-11-03T08:40:22;5.30;;;1.95;;
14001;SDS011;7076;51.280;12.584;2022-11-03T08:45:24;3.35;;;1.65;;
14001;SDS011;7076;51.280;12.584;2022-11-03T08:50:28;3.15;;;1.20;;
14001;SDS011;7076;51.280;12.584;2022-11-03T08:55:31;4.47;;;1.20;;
14001;SDS011;7076;51.280;12.584;2022-11-03T09:00:34;5.05;;;1.00;;
14001;SDS011;7076;51.280;12.584;2022-11-03T09:05:42;5.18;;;1.10;;
14001;SDS011;7076;51.280;12.584;2022-11-03T09:10:45;3.38;;;0.93;;
14001;SDS011;7076;51.280;12.584;2022-11-03T09:15:48;4.78;;;0.90;;
14001;SDS011;7076;51.280;12.584;2022-11-03T09:20:52;3.35;;;1.60;;
14001;SDS011;7076;51.280;12.584;2022-11-03T09:25:55;6.10;;;3.40;;
14001;SDS011;7076;51.280;12.584;2022-11-03T09:30:57;3.78;;;1.40;;
14001;SDS011;7076;51.280;12.584;2022-11-03T09:36:01;1.48;;;0.80;;
14001;SDS011;7076;51.280;12.584;2022-11-03T09:41:04;1.77;;;0.88;;
14001;SDS011;7076;51.280;12.584;2022-11-03T09:46:27;5.20;;;1.27;;
14001;SDS011;7076;51.280;12.584;2022-11-03T09:51:34;2.00;;;0.98;;
14001;SDS011;7076;51.280;12.584;2022-11-03T09:56:37;3.97;;;0.85;;
14001;SDS011;7076;51.280;12.584;2022-11-03T10:01:40;3.88;;;1.33;;
14001;SDS011;7076;51.280;12.584;2022-11-03T10:06:45;3.53;;;1.27;;
14001;SDS011;7076;51.280;12.584;2022-11-03T10:11:48;2.05;;;0.70;;
14001;SDS011;7076;51.280;12.584;2022-11-03T10:16:52;4.93;;;1.13;;
14001;SDS011;7076;51.280;12.584;2022-11-03T10:22:01;1.60;;;0.90;;
14001;SDS011;7076;51.280;12.584;2022-11-03T10:27:05;3.58;;;0.80;;
14001;SDS011;7076;51.280;12.584;2022-11-03T10:32:27;2.03;;;0.70;;
14001;SDS011;7076;51.280;12.584;2022-11-03T10:37:32;3.17;;;0.80;;
14001;SDS011;7076;51.280;12.584;2022-11-03T10:42:37;1.55;;;0.80;;
14001;SDS011;7076;51.280;12.584;2022-11-03T10:47:40;5.30;;;1.10;;
14001;SDS011;7076;51.280;12.584;2022-11-03T10:52:44;4.43;;;1.48;;
14001;SDS011;7076;51.280;12.584;2022-11-03T10:57:46;2.47;;;1.00;;
14001;SDS011;7076;51.280;12.584;2022-11-03T11:02:55;3.60;;;0.88;;
14001;SDS011;7076;51.280;12.584;2022-11-03T11:08:00;2.95;;;0.90;;
14001;SDS011;7076;51.280;12.584;2022-11-03T11:13:04;1.90;;;0.80;;
14001;SDS011;7076;51.280;12.584;2022-11-03T11:24:11;4.00;;;1.10;;
14001;SDS011;7076;51.280;12.584;2022-11-03T11:34:46;4.75;;;1.17;;
14001;SDS011;7076;51.280;12.584;2022-11-03T11:39:50;2.38;;;1.10;;
14001;SDS011;7076;51.280;12.584;2022-11-03T11:45:00;3.35;;;1.25;;
14001;SDS011;7076;51.280;12.584;2022-11-03T11:50:20;3.45;;;1.27;;
14001;SDS011;7076;51.280;12.584;2022-11-03T11:55:36;2.30;;;0.90;;
14001;SDS011;7076;51.280;12.584;2022-11-03T12:00:49;4.68;;;1.27;;
14001;SDS011;7076;51.280;12.584;2022-11-03T12:05:53;1.05;;;0.80;;
14001;SDS011;7076;51.280;12.584;2022-11-03T12:10:58;4.13;;;1.15;;
14001;SDS011;7076;51.280;12.584;2022-11-03T12:16:02;3.22;;;1.27;;
14001;SDS011;7076;51.280;12.584;2022-11-03T12:21:05;3.42;;;1.40;;
14001;SDS011;7076;51.280;12.584;2022-11-03T12:26:16;3.40;;;1.10;;
14001;SDS011;7076;51.280;12.584;2022-11-03T12:31:20;3.90;;;1.27;;
14001;SDS011;7076;51.280;12.584;2022-11-03T12:36:22;3.88;;;1.50;;
14001;SDS011;7076;51.280;12.584;2022-11-03T12:41:26;4.75;;;1.10;;
14001;SDS011;7076;51.280;12.584;2022-11-03T12:46:29;2.28;;;0.90;;
14001;SDS011;7076;51.280;12.584;2022-11-03T12:51:32;3.03;;;1.33;;
14001;SDS011;7076;51.280;12.584;2022-11-03T12:56:35;8.43;;;2.33;;
14001;SDS011;7076;51.280;12.584;2022-11-03T13:01:38;5.25;;;1.48;;
14001;SDS011;7076;51.280;12.584;2022-11-03T13:06:41;3.60;;;1.27;;
14001;SDS011;7076;51.280;12.584;2022-11-03T13:11:45;4.00;;;1.50;;
14001;SDS011;7076;51.280;12.584;2022-11-03T13:17:05;2.80;;;0.95;;
14001;SDS011;7076;51.280;12.584;2022-11-03T13:22:08;4.70;;;1.40;;
14001;SDS011;7076;51.280;12.584;2022-11-03T13:27:13;3.13;;;1.27;;
14001;SDS011;7076;51.280;12.584;2022-11-03T13:32:15;4.47;;;1.10;;
14001;SDS011;7076;51.280;12.584;2022-11-03T13:37:18;5.00;;;1.25;;
14001;SDS011;7076;51.280;12.584;2022-11-03T13:42:26;3.95;;;1.05;;
14001;SDS011;7076;51.280;12.584;2022-11-03T13:47:28;3.05;;;1.85;;
14001;SDS011;7076;51.280;12.584;2022-11-03T13:52:51;3.40;;;0.88;;
14001;SDS011;7076;51.280;12.584;2022-11-03T13:57:55;2.17;;;0.90;;
14001;SDS011;7076;51.280;12.584;2022-11-03T14:03:17;4.05;;;1.20;;
14001;SDS011;7076;51.280;12.584;2022-11-03T14:08:40;2.17;;;0.95;;
14001;SDS011;7076;51.280;12.584;2022-11-03T14:13:44;2.30;;;1.00;;
14001;SDS011;7076;51.280;12.584;2022-11-03T14:18:46;4.50;;;1.10;;
14001;SDS011;7076;51.280;12.584;2022-11-03T14:23:49;2.97;;;1.40;;
14001;SDS011;7076;51.280;12.584;2022-11-03T14:28:53;3.65;;;1.30;;
14001;SDS011;7076;51.280;12.584;2022-11-03T14:33:56;3.38;;;1.10;;
14001;SDS011;7076;51.280;12.584;2022-11-03T14:38:59;3.28;;;1.50;;
14001;SDS011;7076;51.280;12.584;2022-11-03T14:44:02;4.03;;;1.20;;
14001;SDS011;7076;51.280;12.584;2022-11-03T14:49:06;2.42;;;1.00;;
14001;SDS011;7076;51.280;12.584;2022-11-03T14:54:09;3.67;;;1.20;;
14001;SDS011;7076;51.280;12.584;2022-11-03T14:59:14;6.47;;;1.17;;
14001;SDS011;7076;51.280;12.584;2022-11-03T15:04:16;3.60;;;1.80;;
14001;SDS011;7076;51.280;12.584;2022-11-03T15:09:19;8.85;;;1.67;;
14001;SDS011;7076;51.280;12.584;2022-11-03T15:14:23;3.70;;;1.73;;
14001;SDS011;7076;51.280;12.584;2022-11-03T15:19:26;2.25;;;1.23;;
14001;SDS011;7076;51.280;12.584;2022-11-03T15:24:29;3.60;;;1.27;;
14001;SDS011;7076;51.280;12.584;2022-11-03T15:29:53;3.03;;;1.08;;
14001;SDS011;7076;51.280;12.584;2022-11-03T15:34:55;3.28;;;1.48;;
14001;SDS011;7076;51.280;12.584;2022-11-03T15:39:58;4.93;;;1.52;;
14001;SDS011;7076;51.280;12.584;2022-11-03T15:45:03;5.75;;;2.00;;
14001;SDS011;7076;51.280;12.584;2022-11-03T15:50:07;4.15;;;2.38;;
14001;SDS011;7076;51.280;12.584;2022-11-03T15:55:13;2.80;;;1.92;;
14001;SDS011;7076;51.280;12.584;2022-11-03T16:00:18;4.03;;;2.13;;
14001;SDS011;7076;51.280;12.584;2022-11-03T16:05:21;7.63;;;1.80;;
14001;SDS011;7076;51.280;12.584;2022-11-03T16:10:25;2.92;;;1.58;;
14001;SDS011;7076;51.280;12.584;2022-11-03T16:15:29;3.47;;;2.53;;
14001;SDS011;7076;51.280;12.584;2022-11-03T16:20:32;5.07;;;2.85;;
14001;SDS011;7076;51.280;12.584;2022-11-03T16:25:35;4.82;;;2.70;;
14001;SDS011;7076;51.280;12.584;2022-11-03T16:30:39;10.57;;;3.40;;
14001;SDS011;7076;51.280;12.584;2022-11-03T16:35:42;7.97;;;3.10;;
14001;SDS011;7076;51.280;12.584;2022-11-03T16:40:44;18.05;;;4.32;;
14001;SDS011;7076;51.280;12.584;2022-11-03T16:45:48;12.18;;;5.57;;
14001;SDS011;7076;51.280;12.584;2022-11-03T16:50:51;6.22;;;3.00;;
14001;SDS011;7076;51.280;12.584;2022-11-03T16:55:57;9.88;;;4.90;;
14001;SDS011;7076;51.280;12.584;2022-11-03T17:01:01;6.20;;;3.67;;
14001;SDS011;7076;51.280;12.584;2022-11-03T17:06:05;6.60;;;3.63;;
14001;SDS011;7076;51.280;12.584;2022-11-03T17:11:07;6.88;;;4.57;;
14001;SDS011;7076;51.280;12.584;2022-11-03T17:16:11;6.30;;;3.72;;
14001;SDS011;7076;51.280;12.584;2022-11-03T17:21:14;5.82;;;3.53;;
14001;SDS011;7076;51.280;12.584;2022-11-03T17:26:24;7.18;;;3.05;;
14001;SDS011;7076;51.280;12.584;2022-11-03T17:31:33;10.13;;;3.83;;
14001;SDS011;7076;51.280;12.584;2022-11-03T17:36:36;6.65;;;3.30;;
14001;SDS011;7076;51.280;12.584;2022-11-03T17:41:38;5.75;;;3.40;;
14001;SDS011;7076;51.280;12.584;2022-11-03T17:46:43;6.05;;;3.50;;
14001;SDS011;7076;51.280;12.584;2022-11-03T17:51:46;8.07;;;3.47;;
14001;SDS011;7076;51.280;12.584;2022-11-03T17:56:49;9.13;;;4.25;;
14001;SDS011;7076;51.280;12.584;2022-11-03T18:01:52;5.50;;;3.42;;
14001;SDS011;7076;51.280;12.584;2022-11-03T18:06:56;8.75;;;3.83;;
14001;SDS011;7076;51.280;12.584;2022-11-03T18:11:59;6.43;;;3.88;;
14001;SDS011;7076;51.280;12.584;2022-11-03T18:17:20;10.48;;;4.50;;
14001;SDS011;7076;51.280;12.584;2022-11-03T18:22:23;5.68;;;3.50;;
14001;SDS011;7076;51.280;12.584;2022-11-03T18:27:26;10.00;;;5.03;;
14001;SDS011;7076;51.280;12.584;2022-11-03T18:32:30;6.93;;;4.03;;
14001;SDS011;7076;51.280;12.584;2022-11-03T18:37:36;7.78;;;3.75;;
14001;SDS011;7076;51.280;12.584;2022-11-03T18:42:39;5.93;;;3.05;;
14001;SDS011;7076;51.280;12.584;2022-11-03T18:47:43;7.22;;;3.58;;
14001;SDS011;7076;51.280;12.584;2022-11-03T18:52:46;5.85;;;3.42;;
14001;SDS011;7076;51.280;12.584;2022-11-03T18:57:52;14.15;;;4.45;;
14001;SDS011;7076;51.280;12.584;2022-11-03T19:02:56;5.70;;;3.95;;
14001;SDS011;7076;51.280;12.584;2022-11-03T19:07:58;6.20;;;3.40;;
14001;SDS011;7076;51.280;12.584;2022-11-03T19:13:01;5.72;;;3.97;;
14001;SDS011;7076;51.280;12.584;2022-11-03T19:18:05;7.78;;;4.75;;
14001;SDS011;7076;51.280;12.584;2022-11-03T19:23:08;7.97;;;5.20;;
14001;SDS011;7076;51.280;12.584;2022-11-03T19:28:12;6.72;;;4.90;;
14001;SDS011;7076;51.280;12.584;2022-11-03T19:33:17;8.25;;;5.60;;
14001;SDS011;7076;51.280;12.584;2022-11-03T19:38:22;9.43;;;5.93;;
14001;SDS011;7076;51.280;12.584;2022-11-03T19:43:31;7.35;;;5.15;;
14001;SDS011;7076;51.280;12.584;2022-11-03T19:48:36;7.50;;;5.55;;
14001;SDS011;7076;51.280;12.584;2022-11-03T20:10:47;9.43;;;5.97;;
14001;SDS011;7076;51.280;12.584;2022-11-03T20:15:50;8.43;;;5.72;;
14001;SDS011;7076;51.280;12.584;2022-11-03T20:20:59;11.00;;;6.43;;
14001;SDS011;7076;51.280;12.584;2022-11-03T20:26:03;9.52;;;5.97;;
14001;SDS011;7076;51.280;12.584;2022-11-03T20:31:07;7.30;;;5.22;;
14001;SDS011;7076;51.280;12.584;2022-11-03T20:36:12;8.00;;;5.15;;
14001;SDS011;7076;51.280;12.584;2022-11-03T20:41:17;9.52;;;5.22;;
14001;SDS011;7076;51.280;12.584;2022-11-03T20:46:21;10.13;;;6.10;;
14001;SDS011;7076;51.280;12.584;2022-11-03T20:51:25;11.27;;;7.75;;
14001;SDS011;7076;51.280;12.584;2022-11-03T20:56:30;9.50;;;6.43;;
14001;SDS011;7076;51.280;12.584;2022-11-03T21:01:33;12.57;;;6.60;;
14001;SDS011;7076;51.280;12.584;2022-11-03T21:06:36;8.85;;;6.10;;
14001;SDS011;7076;51.280;12.584;2022-11-03T21:11:40;6.15;;;4.45;;
14001;SDS011;7076;51.280;12.584;2022-11-03T21:16:43;8.32;;;6.22;;
14001;SDS011;7076;51.280;12.584;2022-11-03T21:22:09;6.65;;;4.57;;
14001;SDS011;7076;51.280;12.584;2022-11-03T21:27:35;12.45;;;5.72;;
14001;SDS011;7076;51.280;12.584;2022-11-03T21:32:42;7.85;;;5.72;;
14001;SDS011;7076;51.280;12.584;2022-11-03T21:37:44;10.02;;;7.03;;
14001;SDS011;7076;51.280;12.584;2022-11-03T21:42:48;9.48;;;5.80;;
14001;SDS011;7076;51.280;12.584;2022-11-03T21:48:08;8.07;;;5.90;;
14001;SDS011;7076;51.280;12.584;2022-11-03T21:53:28;8.18;;;5.28;;
14001;SDS011;7076;51.280;12.584;2022-11-03T21:58:32;10.73;;;6.07;;
14001;SDS011;7076;51.280;12.584;2022-11-03T22:03:35;8.18;;;5.80;;
14001;SDS011;7076;51.280;12.584;2022-11-03T22:08:39;9.77;;;6.13;;
14001;SDS011;7076;51.280;12.584;2022-11-03T22:13:43;9.73;;;6.38;;
14001;SDS011;7076;51.280;12.584;2022-11-03T22:18:45;10.25;;;6.38;;
14001;SDS011;7076;51.280;12.584;2022-11-03T22:23:48;8.13;;;5.45;;
14001;SDS011;7076;51.280;12.584;2022-11-03T22:29:09;10.90;;;5.47;;
14001;SDS011;7076;51.280;12.584;2022-11-03T22:34:29;8.57;;;4.97;;
14001;SDS011;7076;51.280;12.584;2022-11-03T22:39:49;7.45;;;4.28;;
14001;SDS011;7076;51.280;12.584;2022-11-03T22:45:11;5.95;;;4.43;;
14001;SDS011;7076;51.280;12.584;2022-11-03T22:50:31;8.38;;;5.20;;
14001;SDS011;7076;51.280;12.584;2022-11-03T22:55:34;9.90;;;5.32;;
14001;SDS011;7076;51.280;12.584;2022-11-03T23:00:38;8.48;;;5.35;;
14001;SDS011;7076;51.280;12.584;2022-11-03T23:05:41;8.52;;;6.22;;
14001;SDS011;7076;51.280;12.584;2022-11-03T23:10:44;9.77;;;5.10;;
14001;SDS011;7076;51.280;12.584;2022-11-03T23:15:48;7.05;;;5.35;;
14001;SDS011;7076;51.280;12.584;2022-11-03T23:20:50;8.25;;;5.00;;
14001;SDS011;7076;51.280;12.584;2022-11-03T23:26:08;6.50;;;4.38;;
14001;SDS011;7076;51.280;12.584;2022-11-03T23:31:12;8.70;;;4.95;;
14001;SDS011;7076;51.280;12.584;2022-11-03T23:36:15;8.98;;;5.20;;
14001;SDS011;7076;51.280;12.584;2022-11-03T23:41:18;7.03;;;5.30;;
14001;SDS011;7076;51.280;12.584;2022-11-03T23:46:23;7.85;;;4.63;;
14001;SDS011;7076;51.280;12.584;2022-11-03T23:51:44;7.68;;;5.13;;
14001;SDS011;7076;51.280;12.584;2022-11-03T23:56:47;10.02;;;5.30;;
